Time;durP1;ratioP1;P1;durP2;ratioP2;P2;SDS_P1;SDS_P2;PMS_P1;PMS_P2;Temp;Humidity;BMP_temperature;BMP_pressure;BME280_temperature;BME280_humidity;BME280_pressure;Samples;Min_cycle;Max_cycle;Signal;HPM_P1;HPM_P2
2020/12/01 00:03:23;;;;;;;27.00;16.10;;;;;;;0.49;100.00;98228.05;3844404;76;44084;-22
2020/12/01 00:08:30;;;;;;;31.87;16.37;;;;;;;0.48;100.00;98225.48;3835872;75;44019;-22
2020/12/01 00:13:36;;;;;;;31.67;17.33;;;;;;;0.39;100.00;98221.18;3835416;75;43274;-22
2020/12/01 00:18:42;;;;;;;30.17;16.27;;;;;;;0.36;100.00;98210.78;3874109;76;44067;-22
2020/12/01 00:23:48;;;;;;;30.70;15.80;;;;;;;0.32;100.00;98196.51;3851795;75;43072;-22
2020/12/01 00:28:54;;;;;;;31.10;17.03;;;;;;;0.35;100.00;98191.88;3941596;75;43406;-22
2020/12/01 00:34:00;;;;;;;32.87;16.73;;;;;;;0.24;100.00;98186.42;3886979;75;43711;-22
2020/12/01 00:39:06;;;;;;;29.93;16.70;;;;;;;0.23;100.00;98176.31;3828425;76;44497;-23
2020/12/01 00:44:12;;;;;;;28.43;15.07;;;;;;;0.26;100.00;98181.41;3824992;75;44176;-23
2020/12/01 00:49:19;;;;;;;29.20;15.30;;;;;;;0.30;100.00;98174.94;3872505;76;43669;-22
2020/12/01 00:54:27;;;;;;;31.60;16.43;;;;;;;0.40;100.00;98180.97;3860689;75;26998;-22
2020/12/01 00:59:33;;;;;;;28.80;15.43;;;;;;;0.43;100.00;98171.47;3892518;75;43709;-22
2020/12/01 01:04:39;;;;;;;27.50;15.50;;;;;;;0.44;100.00;98173.16;3844465;76;43081;-22
2020/12/01 01:09:45;;;;;;;29.07;16.00;;;;;;;0.45;100.00;98169.56;3875053;75;43334;-22
2020/12/01 01:14:51;;;;;;;28.40;14.63;;;;;;;0.43;100.00;98159.08;3832023;75;43414;-22
2020/12/01 01:19:56;;;;;;;27.53;14.73;;;;;;;0.52;100.00;98156.75;3829860;76;44091;-22
2020/12/01 01:25:03;;;;;;;28.70;14.97;;;;;;;0.52;100.00;98144.36;3876172;76;43673;-22
2020/12/01 01:30:09;;;;;;;27.63;14.60;;;;;;;0.52;100.00;98144.36;3887960;76;43927;-22
2020/12/01 01:35:16;;;;;;;28.90;14.90;;;;;;;0.54;100.00;98137.62;3874663;76;43690;-22
2020/12/01 01:40:25;;;;;;;25.73;13.90;;;;;;;0.53;100.00;98130.12;3888072;76;43072;-22
2020/12/01 01:45:40;;;;;;;26.13;14.57;;;;;;;0.50;100.00;98133.01;3840562;76;44219;-22
2020/12/01 01:50:55;;;;;;;27.53;15.57;;;;;;;0.47;100.00;98119.95;3827965;76;44021;-23
2020/12/01 01:56:05;;;;;;;29.10;15.77;;;;;;;0.54;100.00;98118.57;3859127;76;43689;-21
2020/12/01 02:01:13;;;;;;;29.23;15.67;;;;;;;0.45;100.00;98120.08;3881706;76;43945;-21
2020/12/01 02:06:23;;;;;;;26.43;15.40;;;;;;;0.44;100.00;98111.75;3834357;76;43483;-21
2020/12/01 02:11:31;;;;;;;26.40;14.30;;;;;;;0.42;100.00;98111.45;3827932;76;44050;-23
2020/12/01 02:16:39;;;;;;;25.73;14.43;;;;;;;0.35;100.00;98115.49;3846708;76;44063;-21
2020/12/01 02:21:46;;;;;;;29.37;15.33;;;;;;;0.44;100.00;98106.91;3842942;76;44419;-21
2020/12/01 02:26:54;;;;;;;25.83;14.63;;;;;;;0.41;100.00;98101.34;3884954;76;43474;-22
2020/12/01 02:32:01;;;;;;;25.77;14.40;;;;;;;0.46;100.00;98095.73;3900076;76;43197;-21
2020/12/01 02:37:08;;;;;;;27.13;14.80;;;;;;;0.49;100.00;98094.66;3884432;76;43429;-21
2020/12/01 02:42:16;;;;;;;25.33;14.43;;;;;;;0.62;100.00;98078.28;3844082;76;43686;-21
2020/12/01 02:47:23;;;;;;;25.47;14.67;;;;;;;0.45;100.00;98080.78;3888880;76;44169;-21
2020/12/01 02:52:29;;;;;;;26.53;14.10;;;;;;;0.44;100.00;98068.48;3876911;76;43489;-21
2020/12/01 02:57:35;;;;;;;25.67;14.90;;;;;;;0.38;100.00;98055.67;3845560;76;44090;-21
2020/12/01 03:02:40;;;;;;;27.53;14.97;;;;;;;0.40;100.00;98063.04;3895010;76;43468;-20
2020/12/01 03:07:46;;;;;;;23.47;13.47;;;;;;;0.45;100.00;98052.48;3880484;76;43426;-21
2020/12/01 03:12:52;;;;;;;26.53;14.47;;;;;;;0.48;100.00;98040.82;3835042;76;43689;-23
2020/12/01 03:17:58;;;;;;;23.97;13.50;;;;;;;0.51;100.00;98045.91;3771215;78;44086;-23
2020/12/01 03:23:03;;;;;;;24.43;14.07;;;;;;;0.55;100.00;98040.75;3812617;77;44049;-23
2020/12/01 03:28:10;;;;;;;24.10;13.97;;;;;;;0.52;100.00;98047.61;3815990;75;44522;-22
2020/12/01 03:33:16;;;;;;;23.93;13.17;;;;;;;0.52;100.00;98044.96;3809161;78;44194;-23
2020/12/01 03:38:22;;;;;;;22.27;12.47;;;;;;;0.60;100.00;98035.98;3869885;76;44199;-21
2020/12/01 03:43:28;;;;;;;23.47;12.77;;;;;;;0.62;100.00;98043.81;3844680;76;44580;-22
2020/12/01 03:48:34;;;;;;;19.23;12.20;;;;;;;0.62;100.00;98034.54;3834968;76;43697;-21
2020/12/01 03:53:40;;;;;;;19.87;11.87;;;;;;;0.61;100.00;98025.75;3857484;76;44556;-21
2020/12/01 03:58:46;;;;;;;22.30;12.93;;;;;;;0.63;100.00;98034.91;3826968;75;44226;-22
2020/12/01 04:03:52;;;;;;;17.70;11.20;;;;;;;0.76;100.00;98026.95;3821154;76;42833;-21
2020/12/01 04:08:57;;;;;;;20.43;11.70;;;;;;;0.75;100.00;98029.23;3841976;75;43409;-21
2020/12/01 04:14:03;;;;;;;18.63;11.27;;;;;;;0.69;100.00;98025.67;3840537;76;43689;-21
2020/12/01 04:19:10;;;;;;;19.23;11.53;;;;;;;0.63;100.00;98025.63;3871659;76;44096;-22
2020/12/01 04:24:28;;;;;;;18.17;11.50;;;;;;;0.67;100.00;98031.56;3832181;75;43313;-22
2020/12/01 04:29:37;;;;;;;19.97;11.23;;;;;;;0.69;100.00;98029.66;3812481;75;26813;-23
2020/12/01 04:34:44;;;;;;;17.43;10.73;;;;;;;0.59;100.00;98015.73;3843185;76;43361;-23
2020/12/01 04:40:07;;;;;;;19.10;11.40;;;;;;;0.49;100.00;98018.66;3875917;76;43488;-22
2020/12/01 04:45:14;;;;;;;19.43;11.27;;;;;;;0.47;100.00;98019.24;3839226;76;43502;-22
2020/12/01 04:50:24;;;;;;;20.07;10.70;;;;;;;0.41;100.00;98011.73;3852253;76;44056;-23
2020/12/01 04:56:05;;;;;;;18.77;11.40;;;;;;;0.27;100.00;98015.33;3844251;76;44027;-23
2020/12/01 05:01:16;;;;;;;19.33;11.47;;;;;;;0.21;100.00;98016.59;3858722;75;43420;-23
2020/12/01 05:06:38;;;;;;;21.20;12.13;;;;;;;0.20;100.00;98011.42;3812001;76;43468;-23
2020/12/01 05:11:45;;;;;;;22.10;12.03;;;;;;;0.14;100.00;98014.02;3841300;75;43721;-23
2020/12/01 05:16:59;;;;;;;20.90;12.00;;;;;;;0.12;100.00;98017.23;3852628;76;43403;-22
2020/12/01 05:22:06;;;;;;;21.30;12.37;;;;;;;0.15;100.00;98011.73;3836143;75;44919;-22
2020/12/01 05:27:27;;;;;;;20.87;12.03;;;;;;;0.19;100.00;98010.55;3821790;76;43575;-23
2020/12/01 05:32:36;;;;;;;22.53;12.87;;;;;;;0.26;100.00;98013.17;3814181;76;44466;-23
2020/12/01 05:37:50;;;;;;;22.20;12.13;;;;;;;0.27;100.00;98017.98;3806504;76;44046;-23
2020/12/01 05:42:57;;;;;;;20.70;12.00;;;;;;;0.22;100.00;98013.00;3747120;79;43466;-22
2020/12/01 05:48:19;;;;;;;22.03;11.90;;;;;;;0.20;100.00;98009.60;3845526;76;44077;-23
2020/12/01 05:53:25;;;;;;;21.60;12.70;;;;;;;0.19;100.00;98001.77;3765925;77;43388;-23
2020/12/01 05:58:41;;;;;;;23.83;13.07;;;;;;;0.24;100.00;98013.75;3779292;76;43461;-23
2020/12/01 06:04:08;;;;;;;22.00;12.30;;;;;;;0.21;100.00;98019.73;3820910;76;43681;-22
2020/12/01 06:09:18;;;;;;;23.10;12.93;;;;;;;0.19;100.00;98027.77;3703933;80;43138;-23
2020/12/01 06:14:28;;;;;;;20.80;11.90;;;;;;;0.19;100.00;98033.56;3778055;76;43729;-23
2020/12/01 06:19:37;;;;;;;20.47;12.40;;;;;;;0.26;100.00;98029.52;3757930;77;42673;-21
2020/12/01 06:24:56;;;;;;;21.77;11.87;;;;;;;0.31;100.00;98032.72;3834959;75;44097;-21
2020/12/01 06:30:32;;;;;;;22.67;12.87;;;;;;;0.33;100.00;98021.54;3900619;75;43696;-21
2020/12/01 06:36:21;;;;;;;23.53;13.27;;;;;;;0.28;100.00;98022.32;3863139;76;44319;-21
2020/12/01 06:41:29;;;;;;;23.47;13.20;;;;;;;0.39;100.00;98026.89;3836355;76;44730;-21
2020/12/01 06:46:47;;;;;;;21.90;12.70;;;;;;;0.29;100.00;98014.25;3889993;76;44033;-21
2020/12/01 06:51:56;;;;;;;22.63;12.87;;;;;;;0.38;100.00;98023.87;3874176;76;43999;-21
2020/12/01 06:57:05;;;;;;;19.73;11.80;;;;;;;0.39;100.00;98024.24;3860805;76;43498;-21
2020/12/01 07:02:16;;;;;;;23.23;12.93;;;;;;;0.36;100.00;98019.98;3837619;76;44052;-21
2020/12/01 07:07:25;;;;;;;21.17;12.57;;;;;;;0.41;100.00;98032.45;3841045;76;44079;-21
2020/12/01 07:12:45;;;;;;;20.43;12.23;;;;;;;0.33;100.00;98035.25;3837879;76;43673;-21
2020/12/01 07:18:00;;;;;;;22.47;12.47;;;;;;;0.42;100.00;98033.28;3757527;77;43541;-21
2020/12/01 07:23:34;;;;;;;21.73;12.10;;;;;;;0.44;100.00;98026.94;3737078;78;43716;-21
2020/12/01 07:28:44;;;;;;;19.43;11.07;;;;;;;0.49;100.00;98029.72;3778982;78;44618;-21
2020/12/01 07:33:54;;;;;;;18.77;10.73;;;;;;;0.48;100.00;98039.95;3870441;76;43713;-21
2020/12/01 07:39:17;;;;;;;20.37;10.87;;;;;;;0.45;100.00;98041.02;3895713;76;44559;-21
2020/12/01 07:44:26;;;;;;;19.13;10.70;;;;;;;0.39;100.00;98044.95;3872498;76;43320;-22
2020/12/01 07:49:33;;;;;;;18.67;11.60;;;;;;;0.43;100.00;98041.60;3855084;76;43349;-22
2020/12/01 07:54:42;;;;;;;19.33;10.63;;;;;;;0.43;100.00;98049.09;3837428;76;42894;-23
2020/12/01 07:59:51;;;;;;;18.83;10.63;;;;;;;0.46;100.00;98055.97;3826932;76;118787;-22
2020/12/01 08:05:02;;;;;;;19.03;10.90;;;;;;;0.48;100.00;98058.05;3746206;79;43483;-22
2020/12/01 08:10:10;;;;;;;17.07;10.50;;;;;;;0.55;100.00;98064.61;3823754;77;43604;-22
2020/12/01 08:15:20;;;;;;;18.03;10.63;;;;;;;0.53;100.00;98066.51;3822402;77;43688;-22
2020/12/01 08:20:27;;;;;;;20.50;11.43;;;;;;;0.58;100.00;98071.02;3823596;77;43690;-22
2020/12/01 08:25:35;;;;;;;20.30;11.67;;;;;;;0.63;100.00;98071.19;3829232;77;44624;-22
2020/12/01 08:30:51;;;;;;;19.37;11.53;;;;;;;0.65;100.00;98070.61;3849565;77;43487;-23
2020/12/01 08:36:02;;;;;;;20.27;11.47;;;;;;;0.71;100.00;98077.63;3813999;77;44711;-23
2020/12/01 08:41:15;;;;;;;18.00;11.20;;;;;;;0.72;100.00;98073.19;3834730;77;43690;-22
2020/12/01 08:46:23;;;;;;;17.80;11.40;;;;;;;0.79;100.00;98076.27;3770252;78;43814;-21
2020/12/01 08:51:32;;;;;;;19.30;11.33;;;;;;;0.82;100.00;98076.05;3716005;79;43335;-20
2020/12/01 08:57:03;;;;;;;19.43;11.17;;;;;;;0.87;100.00;98088.03;3835729;77;43448;-23
2020/12/01 09:02:11;;;;;;;19.00;11.60;;;;;;;0.85;100.00;98097.90;3837119;77;43936;-23
2020/12/01 09:07:27;;;;;;;17.37;11.30;;;;;;;0.92;100.00;98095.17;3708135;80;43898;-22
2020/12/01 09:12:35;;;;;;;19.23;10.93;;;;;;;0.96;100.00;98099.77;3770486;79;43718;-20
2020/12/01 09:17:47;;;;;;;18.63;11.20;;;;;;;0.97;100.00;98111.25;3761220;78;43105;-23
2020/12/01 09:22:51;;;;;;;19.07;11.47;;;;;;;1.03;100.00;98109.02;3769024;79;43460;-22
2020/12/01 09:27:57;;;;;;;20.47;12.00;;;;;;;1.05;100.00;98107.56;3827677;76;43423;-23
2020/12/01 09:33:04;;;;;;;18.60;11.07;;;;;;;1.05;100.00;98116.84;3792270;78;43346;-22
2020/12/01 09:38:11;;;;;;;18.80;11.27;;;;;;;1.06;100.00;98121.20;3735124;79;43647;-23
2020/12/01 09:43:21;;;;;;;17.70;10.70;;;;;;;1.08;100.00;98123.27;3809722;78;44093;-23
2020/12/01 09:48:30;;;;;;;19.63;11.50;;;;;;;1.06;100.00;98125.18;3835786;76;43830;-22
2020/12/01 09:53:43;;;;;;;17.90;10.70;;;;;;;1.12;100.00;98117.27;3819014;76;43373;-22
2020/12/01 10:09:44;;;;;;;21.43;11.50;;;;;;;1.18;100.00;98120.80;3748569;79;43292;-22
2020/12/01 10:20:52;;;;;;;22.83;12.53;;;;;;;1.16;100.00;98111.63;3764213;78;44646;-23
2020/12/01 10:26:04;;;;;;;24.10;12.60;;;;;;;1.33;100.00;98113.56;3803974;76;44086;-23
2020/12/01 10:36:41;;;;;;;24.23;13.23;;;;;;;1.36;100.00;98125.26;3745030;78;44100;-22
2020/12/01 10:41:47;;;;;;;23.07;12.77;;;;;;;1.27;100.00;98125.47;3758571;78;43999;-23
2020/12/01 10:46:53;;;;;;;23.50;13.23;;;;;;;1.32;100.00;98120.66;3765776;78;43470;-22
2020/12/01 10:51:59;;;;;;;24.40;13.67;;;;;;;1.34;100.00;98120.08;3795030;78;43404;-21
2020/12/01 10:57:05;;;;;;;25.23;13.27;;;;;;;1.50;100.00;98126.45;3727663;78;44062;-23
2020/12/01 11:02:11;;;;;;;21.97;12.47;;;;;;;1.50;100.00;98125.12;3712720;79;43584;-21
2020/12/01 11:07:17;;;;;;;23.93;13.17;;;;;;;1.54;100.00;98126.60;3681989;80;44037;-21
2020/12/01 11:12:23;;;;;;;23.80;14.07;;;;;;;1.57;100.00;98130.00;3770091;78;43714;-21
2020/12/01 11:17:29;;;;;;;24.90;13.33;;;;;;;1.66;100.00;98136.80;3757008;78;43690;-21
2020/12/01 11:22:35;;;;;;;23.97;13.17;;;;;;;1.63;100.00;98135.71;3733285;79;43651;-21
2020/12/01 11:27:41;;;;;;;23.90;13.63;;;;;;;1.76;100.00;98140.96;3640680;79;44078;-21
2020/12/01 11:32:48;;;;;;;22.30;12.90;;;;;;;1.76;100.00;98138.30;3810133;78;43957;-21
2020/12/01 11:37:54;;;;;;;24.57;13.93;;;;;;;1.80;100.00;98133.61;3810725;78;44024;-22
2020/12/01 11:43:00;;;;;;;22.40;13.33;;;;;;;1.89;100.00;98138.73;3710146;79;43472;-21
2020/12/01 11:48:06;;;;;;;21.00;12.27;;;;;;;1.94;100.00;98140.09;3791042;78;44111;-21
2020/12/01 11:53:13;;;;;;;22.63;12.30;;;;;;;1.96;100.00;98145.28;3811077;76;43998;-21
2020/12/01 11:58:19;;;;;;;25.03;13.60;;;;;;;1.92;100.00;98147.81;3810789;76;44062;-21
2020/12/01 12:03:25;;;;;;;22.30;13.03;;;;;;;1.97;100.00;98149.63;3732350;78;43983;-21
2020/12/01 12:08:30;;;;;;;22.43;12.83;;;;;;;1.97;100.00;98145.18;3803555;76;44072;-23
2020/12/01 12:13:37;;;;;;;18.90;11.73;;;;;;;1.92;100.00;98142.00;3811376;78;43716;-23
2020/12/01 12:18:43;;;;;;;21.30;12.10;;;;;;;2.02;100.00;98144.84;3810479;77;43731;-21
2020/12/01 12:23:49;;;;;;;22.87;12.93;;;;;;;2.04;100.00;98144.25;3801101;78;44063;-21
2020/12/01 12:28:56;;;;;;;22.73;12.27;;;;;;;2.12;100.00;98151.16;3810898;76;43330;-21
2020/12/01 12:34:02;;;;;;;22.70;12.27;;;;;;;2.10;100.00;98157.06;3801070;76;44043;-21
2020/12/01 12:39:08;;;;;;;19.33;11.53;;;;;;;2.18;100.00;98166.26;3810991;78;44038;-23
2020/12/01 12:44:15;;;;;;;20.57;11.57;;;;;;;2.26;100.00;98159.91;3783797;78;44084;-24
2020/12/01 12:49:21;;;;;;;21.03;11.70;;;;;;;2.26;100.00;98162.56;3818905;76;43689;-21
2020/12/01 12:54:27;;;;;;;20.77;12.07;;;;;;;2.24;100.00;98167.98;3802204;78;43317;-21
2020/12/01 12:59:32;;;;;;;22.90;11.90;;;;;;;2.30;100.00;98166.20;3786527;78;43294;-23
2020/12/01 13:04:39;;;;;;;22.20;12.00;;;;;;;2.34;100.00;98172.63;3785056;76;43337;-21
2020/12/01 13:09:44;;;;;;;20.80;11.67;;;;;;;2.28;100.00;98178.77;3811371;77;43491;-21
2020/12/01 13:14:50;;;;;;;21.43;12.53;;;;;;;2.19;100.00;98181.25;3811113;78;44072;-21
2020/12/01 13:19:56;;;;;;;19.90;11.77;;;;;;;2.30;100.00;98181.30;3778739;78;44031;-21
2020/12/01 13:25:02;;;;;;;20.20;12.27;;;;;;;2.32;100.00;98180.70;3820712;76;43719;-21
2020/12/01 13:30:09;;;;;;;21.37;12.30;;;;;;;2.28;100.00;98188.56;3793052;77;44039;-22
2020/12/01 13:35:17;;;;;;;22.57;12.17;;;;;;;2.25;100.00;98193.60;3794915;78;43762;-21
2020/12/01 13:40:25;;;;;;;19.90;11.37;;;;;;;2.29;100.00;98193.75;3745969;79;44093;-21
2020/12/01 13:45:30;;;;;;;22.47;12.27;;;;;;;2.36;100.00;98191.95;3711456;78;44002;-21
2020/12/01 13:50:37;;;;;;;19.50;11.33;;;;;;;2.36;100.00;98202.12;3772290;78;44091;-22
2020/12/01 13:55:43;;;;;;;21.07;12.43;;;;;;;2.35;100.00;98211.55;3753458;78;43347;-21
2020/12/01 14:00:48;;;;;;;20.27;12.03;;;;;;;2.38;100.00;98219.27;3779238;78;43452;-21
2020/12/01 14:05:55;;;;;;;20.87;12.43;;;;;;;2.33;100.00;98219.62;3723314;78;44085;-21
2020/12/01 14:11:03;;;;;;;20.80;11.20;;;;;;;2.34;100.00;98231.11;3701906;78;44073;-21
2020/12/01 14:16:09;;;;;;;20.57;11.37;;;;;;;2.34;100.00;98236.44;3703371;78;43995;-21
2020/12/01 14:21:16;;;;;;;19.50;11.27;;;;;;;2.33;100.00;98242.22;3697543;78;43698;-21
2020/12/01 14:26:22;;;;;;;21.67;12.00;;;;;;;2.32;100.00;98251.15;3714046;78;44946;-21
2020/12/01 14:31:29;;;;;;;23.57;12.87;;;;;;;2.33;100.00;98260.83;3829260;76;43401;-21
2020/12/01 14:36:38;;;;;;;23.97;13.40;;;;;;;2.33;100.00;98255.50;3837051;77;44552;-21
2020/12/01 14:41:45;;;;;;;22.47;12.23;;;;;;;2.33;100.00;98263.98;3770152;78;43416;-21
2020/12/01 14:47:05;;;;;;;21.97;13.07;;;;;;;2.28;100.00;98264.31;3770210;79;43887;-21
2020/12/01 14:52:15;;;;;;;20.37;11.43;;;;;;;2.20;100.00;98264.88;3833539;77;43393;-21
2020/12/01 14:57:47;;;;;;;24.23;13.73;;;;;;;2.19;100.00;98272.94;3836982;77;44056;-21
2020/12/01 15:03:16;;;;;;;25.40;13.63;;;;;;;2.12;100.00;98277.39;3699828;80;44115;-21
2020/12/01 15:08:51;;;;;;;26.10;14.47;;;;;;;2.09;100.00;98278.94;3768839;79;43464;-21
2020/12/01 15:13:57;;;;;;;24.67;12.97;;;;;;;2.11;100.00;98288.98;3743329;79;44062;-24
2020/12/01 15:19:04;;;;;;;24.30;13.70;;;;;;;2.13;100.00;98289.72;3726130;79;44036;-21
2020/12/01 15:24:14;;;;;;;30.53;15.40;;;;;;;2.14;100.00;98295.41;3760919;79;43459;-21
2020/12/01 15:29:20;;;;;;;27.67;14.50;;;;;;;2.13;100.00;98300.35;3834090;77;43446;-23
2020/12/01 15:34:26;;;;;;;28.90;14.77;;;;;;;2.10;100.00;98308.53;3861744;76;43935;-23
2020/12/01 15:39:33;;;;;;;26.73;14.10;;;;;;;2.08;100.00;98314.44;3825781;76;43720;-24
2020/12/01 15:44:42;;;;;;;24.53;13.13;;;;;;;2.06;100.00;98313.69;3814170;76;44094;-23
2020/12/01 15:49:49;;;;;;;27.80;14.97;;;;;;;2.02;100.00;98320.20;3808026;77;43069;-23
2020/12/01 15:55:21;;;;;;;25.83;14.30;;;;;;;2.03;100.00;98327.68;3797758;77;43623;-23
2020/12/01 16:01:03;;;;;;;29.80;14.83;;;;;;;2.02;100.00;98339.27;3791094;77;44005;-23
2020/12/01 16:06:32;;;;;;;25.03;14.20;;;;;;;2.06;100.00;98339.43;3809050;76;44071;-23
2020/12/01 16:12:21;;;;;;;29.43;15.87;;;;;;;2.00;100.00;98348.20;3810224;76;43722;-22
2020/12/01 16:17:32;;;;;;;29.37;16.00;;;;;;;2.03;100.00;98352.92;3805499;76;44473;-23
2020/12/01 16:22:41;;;;;;;27.40;15.13;;;;;;;2.01;100.00;98365.00;3827767;76;44123;-23
2020/12/01 16:27:59;;;;;;;26.93;14.33;;;;;;;2.00;100.00;98371.27;3808499;77;44022;-23
2020/12/01 16:33:07;;;;;;;31.30;15.97;;;;;;;2.01;100.00;98380.95;3804274;76;44038;-23
2020/12/01 16:38:20;;;;;;;28.50;15.20;;;;;;;2.02;100.00;98389.75;3786523;78;43451;-22
2020/12/01 16:43:51;;;;;;;29.93;15.37;;;;;;;2.03;100.00;98391.00;3811250;77;43807;-22
2020/12/01 16:49:01;;;;;;;27.27;14.93;;;;;;;1.99;100.00;98394.81;3809509;76;43400;-23
2020/12/01 16:54:22;;;;;;;28.87;15.07;;;;;;;1.99;100.00;98407.64;3807270;77;44422;-22
2020/12/01 17:00:15;;;;;;;28.37;14.17;;;;;;;1.97;100.00;98412.20;3809421;76;43608;-22
2020/12/01 17:05:26;;;;;;;28.57;14.87;;;;;;;1.90;100.00;98413.57;3803087;76;43361;-22
2020/12/01 17:10:36;;;;;;;29.07;15.30;;;;;;;1.88;100.00;98434.56;3734402;79;43992;-23
2020/12/01 17:15:50;;;;;;;27.33;16.03;;;;;;;1.85;100.00;98432.98;3746727;78;43733;-20
2020/12/01 17:20:56;;;;;;;29.53;15.77;;;;;;;1.81;100.00;98436.33;3793673;76;44569;-22
2020/12/01 17:26:02;;;;;;;28.63;15.47;;;;;;;1.85;100.00;98438.30;3801012;78;43714;-23
2020/12/01 17:31:26;;;;;;;32.03;16.60;;;;;;;1.77;100.00;98450.77;3823556;77;44041;-23
2020/12/01 17:36:36;;;;;;;28.40;15.37;;;;;;;1.74;100.00;98454.95;3836578;77;43171;-23
2020/12/01 17:41:46;;;;;;;27.67;14.87;;;;;;;1.77;100.00;98459.20;3837483;77;43685;-23
2020/12/01 17:46:57;;;;;;;28.67;14.47;;;;;;;1.76;100.00;98459.69;3836424;77;43388;-23
2020/12/01 17:52:06;;;;;;;30.47;15.60;;;;;;;1.79;100.00;98467.45;3707739;79;44114;-22
2020/12/01 17:57:13;;;;;;;26.43;13.83;;;;;;;1.78;100.00;98468.87;3766453;78;43298;-21
2020/12/01 18:02:19;;;;;;;27.93;14.83;;;;;;;1.73;100.00;98477.16;3753682;79;43277;-21
2020/12/01 18:07:25;;;;;;;31.27;15.73;;;;;;;1.73;100.00;98474.50;3759302;79;43688;-21
2020/12/01 18:12:43;;;;;;;31.57;16.17;;;;;;;1.71;100.00;98474.23;3759816;79;44039;-21
2020/12/01 18:18:05;;;;;;;31.53;15.67;;;;;;;1.69;100.00;98477.01;3754381;79;44079;-24
2020/12/01 18:23:42;;;;;;;31.43;16.43;;;;;;;1.72;100.00;98481.25;3816676;77;43277;-21
2020/12/01 18:28:51;;;;;;;29.60;15.53;;;;;;;1.71;100.00;98475.08;3817186;77;44030;-22
2020/12/01 18:34:07;;;;;;;31.13;16.63;;;;;;;1.71;100.00;98485.70;3804099;77;43696;-21
2020/12/01 18:39:13;;;;;;;28.57;14.97;;;;;;;1.68;100.00;98492.08;3805932;76;44407;-21
2020/12/01 18:44:26;;;;;;;29.30;15.27;;;;;;;1.73;100.00;98496.23;3800490;77;43348;-21
2020/12/01 18:49:31;;;;;;;27.73;14.83;;;;;;;1.72;100.00;98493.20;3786743;76;44042;-21
2020/12/01 18:54:37;;;;;;;31.30;16.20;;;;;;;1.74;100.00;98504.59;3820348;77;43940;-21
2020/12/01 18:59:42;;;;;;;29.07;15.83;;;;;;;1.72;100.00;98509.98;3799542;76;44092;-21
2020/12/01 19:04:48;;;;;;;31.47;16.43;;;;;;;1.71;100.00;98510.09;3782200;77;43480;-21
2020/12/01 19:09:54;;;;;;;31.13;16.20;;;;;;;1.68;100.00;98513.81;3792388;77;44432;-21
2020/12/01 19:15:00;;;;;;;30.13;16.43;;;;;;;1.71;100.00;98521.55;3791900;77;44023;-21
2020/12/01 19:20:06;;;;;;;29.27;15.30;;;;;;;1.71;100.00;98522.88;3868248;76;43370;-21
2020/12/01 19:25:11;;;;;;;31.27;16.07;;;;;;;1.73;100.00;98524.13;3789534;77;43222;-21
2020/12/01 19:30:19;;;;;;;26.77;14.43;;;;;;;1.75;100.00;98531.52;3831862;76;42911;-21
2020/12/01 19:35:26;;;;;;;26.57;14.73;;;;;;;1.74;100.00;98535.97;3879232;76;43489;-21
2020/12/01 19:40:33;;;;;;;29.13;15.17;;;;;;;1.71;100.00;98549.44;3779872;76;44029;-21
2020/12/01 19:45:39;;;;;;;30.57;16.00;;;;;;;1.67;100.00;98557.27;3782691;77;43745;-21
2020/12/01 19:50:45;;;;;;;28.23;15.33;;;;;;;1.71;100.00;98569.86;3788048;77;44042;-21
2020/12/01 19:55:51;;;;;;;30.10;16.07;;;;;;;1.68;100.00;98563.78;3804711;77;43735;-23
2020/12/01 20:00:58;;;;;;;30.80;16.70;;;;;;;1.72;100.00;98564.43;3839033;77;44059;-24
2020/12/01 20:06:03;;;;;;;30.50;15.63;;;;;;;1.76;100.00;98573.07;3806257;76;44055;-21
2020/12/01 20:11:12;;;;;;;28.70;15.87;;;;;;;1.76;100.00;98573.07;3814099;77;43405;-21
2020/12/01 20:16:19;;;;;;;29.90;15.87;;;;;;;1.68;100.00;98582.87;3841270;77;43714;-21
2020/12/01 20:21:25;;;;;;;28.73;15.10;;;;;;;1.71;100.00;98578.66;3781943;77;43343;-23
2020/12/01 20:26:31;;;;;;;28.03;15.27;;;;;;;1.73;100.00;98586.55;3823527;77;43389;-23
2020/12/01 20:31:37;;;;;;;30.23;15.77;;;;;;;1.74;100.00;98589.09;3836613;76;43717;-22
2020/12/01 20:37:23;;;;;;;28.60;15.27;;;;;;;1.72;100.00;98592.31;3823717;75;43411;-22
2020/12/01 20:42:31;;;;;;;28.97;15.23;;;;;;;1.78;100.00;98595.91;3827693;76;44065;-23
2020/12/01 20:47:37;;;;;;;30.43;16.73;;;;;;;1.82;100.00;98591.24;3875067;75;43431;-22
2020/12/01 20:52:47;;;;;;;31.77;17.37;;;;;;;1.88;100.00;98599.28;3882411;75;43733;-23
2020/12/01 20:57:53;;;;;;;31.70;17.53;;;;;;;1.79;100.00;98600.28;3826019;76;43740;-23
2020/12/01 21:03:00;;;;;;;32.63;17.63;;;;;;;1.81;100.00;98605.02;3808280;76;43684;-22
2020/12/01 21:08:09;;;;;;;32.30;18.50;;;;;;;1.79;100.00;98604.72;3805466;75;44007;-22
2020/12/01 21:13:18;;;;;;;29.73;17.27;;;;;;;1.79;100.00;98602.06;3831391;76;43729;-23
2020/12/01 21:18:27;;;;;;;35.47;18.00;;;;;;;1.84;100.00;98606.61;3811711;76;43718;-23
2020/12/01 21:23:37;;;;;;;32.20;17.73;;;;;;;1.85;100.00;98608.31;3843165;76;44003;-23
2020/12/01 21:28:49;;;;;;;34.80;18.67;;;;;;;1.79;100.00;98621.98;3857481;76;43993;-22
2020/12/01 21:33:58;;;;;;;32.83;18.17;;;;;;;1.83;100.00;98621.68;3842594;75;43706;-22
2020/12/01 21:39:07;;;;;;;31.80;17.77;;;;;;;1.85;100.00;98626.42;3822467;76;43721;-22
2020/12/01 21:44:17;;;;;;;32.90;17.50;;;;;;;1.89;100.00;98637.69;3734634;79;43677;-22
2020/12/01 21:49:24;;;;;;;35.10;19.30;;;;;;;1.88;100.00;98632.49;3770577;77;44055;-22
2020/12/01 21:54:39;;;;;;;35.07;19.17;;;;;;;1.84;100.00;98635.34;3791458;78;43301;-22
2020/12/01 22:00:03;;;;;;;35.23;18.73;;;;;;;1.84;100.00;98634.02;3804626;77;44065;-22
2020/12/01 22:05:41;;;;;;;38.10;19.20;;;;;;;1.85;100.00;98641.03;3779687;77;43356;-22
2020/12/01 22:10:52;;;;;;;35.67;18.37;;;;;;;1.81;100.00;98639.55;3813063;76;43397;-22
2020/12/01 22:16:00;;;;;;;37.00;19.33;;;;;;;1.76;100.00;98644.30;3793956;78;43995;-22
2020/12/01 22:21:16;;;;;;;35.73;18.50;;;;;;;1.75;100.00;98647.91;3784388;78;43696;-22
2020/12/01 22:26:25;;;;;;;35.10;18.23;;;;;;;1.70;100.00;98652.68;3756000;77;43061;-22
2020/12/01 22:32:10;;;;;;;37.43;19.10;;;;;;;1.66;100.00;98657.80;3794964;77;44030;-22
2020/12/01 22:37:18;;;;;;;39.07;18.63;;;;;;;1.65;100.00;98669.38;3756440;78;43686;-22
2020/12/01 22:42:27;;;;;;;39.70;20.10;;;;;;;1.63;100.00;98670.81;3809174;78;43699;-22
2020/12/01 22:48:12;;;;;;;36.73;19.83;;;;;;;1.59;100.00;98667.13;3793848;76;44117;-22
2020/12/01 22:54:10;;;;;;;39.00;19.77;;;;;;;1.57;100.00;98665.88;3813954;76;43711;-22
2020/12/01 22:59:18;;;;;;;38.30;20.40;;;;;;;1.52;100.00;98658.21;3715863;78;43515;-21
2020/12/01 23:04:24;;;;;;;38.53;19.83;;;;;;;1.45;100.00;98654.26;3793063;78;44429;-21
2020/12/01 23:09:33;;;;;;;38.97;20.00;;;;;;;1.36;100.00;98657.02;3808298;77;44189;-21
2020/12/01 23:14:43;;;;;;;38.17;19.63;;;;;;;1.28;100.00;98653.13;3772963;78;43348;-21
2020/12/01 23:19:49;;;;;;;39.63;19.87;;;;;;;1.25;100.00;98662.60;3840577;76;44126;-21
2020/12/01 23:24:56;;;;;;;39.27;20.03;;;;;;;1.22;100.00;98660.55;3693128;78;43722;-21
2020/12/01 23:30:06;;;;;;;36.33;18.03;;;;;;;1.27;100.00;98661.58;3797085;77;44036;-21
2020/12/01 23:35:14;;;;;;;34.33;17.77;;;;;;;1.26;100.00;98659.00;3785496;77;44476;-21
2020/12/01 23:40:23;;;;;;;35.40;18.10;;;;;;;1.23;100.00;98672.00;3816621;76;43775;-21
2020/12/01 23:45:30;;;;;;;33.20;17.60;;;;;;;1.23;100.00;98660.90;3857476;77;44200;-21
2020/12/01 23:50:36;;;;;;;37.00;18.90;;;;;;;1.27;100.00;98659.39;3824176;75;44511;-21
2020/12/01 23:55:42;;;;;;;33.10;17.20;;;;;;;1.28;100.00;98656.66;3860422;77;43474;-21
